sensor_id;sensor_type;location;lat;lon;timestamp;P1;durP1;ratioP1;P2;durP2;ratioP2
55435;SDS011;41307;53.142;6.430;2023-09-07T00:00:09;2.45;;;1.50;;
55435;SDS011;41307;53.142;6.430;2023-09-07T00:02:36;2.97;;;1.77;;
55435;SDS011;41307;53.142;6.430;2023-09-07T00:05:01;3.15;;;1.73;;
55435;SDS011;41307;53.142;6.430;2023-09-07T00:07:27;1.90;;;1.35;;
55435;SDS011;41307;53.142;6.430;2023-09-07T00:09:53;2.50;;;1.50;;
55435;SDS011;41307;53.142;6.430;2023-09-07T00:12:18;2.15;;;1.52;;
55435;SDS011;41307;53.142;6.430;2023-09-07T00:14:44;2.60;;;1.83;;
55435;SDS011;41307;53.142;6.430;2023-09-07T00:17:11;2.42;;;1.67;;
55435;SDS011;41307;53.142;6.430;2023-09-07T00:19:37;4.22;;;1.90;;
55435;SDS011;41307;53.142;6.430;2023-09-07T00:22:03;1.92;;;1.48;;
55435;SDS011;41307;53.142;6.430;2023-09-07T00:24:30;2.80;;;1.63;;
55435;SDS011;41307;53.142;6.430;2023-09-07T00:26:57;2.53;;;1.60;;
55435;SDS011;41307;53.142;6.430;2023-09-07T00:29:22;3.13;;;1.80;;
55435;SDS011;41307;53.142;6.430;2023-09-07T00:31:48;2.10;;;1.63;;
55435;SDS011;41307;53.142;6.430;2023-09-07T00:34:14;3.35;;;1.80;;
55435;SDS011;41307;53.142;6.430;2023-09-07T00:36:40;2.15;;;1.63;;
55435;SDS011;41307;53.142;6.430;2023-09-07T00:39:05;2.53;;;1.67;;
55435;SDS011;41307;53.142;6.430;2023-09-07T00:41:31;4.15;;;1.92;;
55435;SDS011;41307;53.142;6.430;2023-09-07T00:43:57;3.85;;;1.58;;
55435;SDS011;41307;53.142;6.430;2023-09-07T00:46:22;3.47;;;2.13;;
55435;SDS011;41307;53.142;6.430;2023-09-07T00:48:48;3.45;;;1.90;;
55435;SDS011;41307;53.142;6.430;2023-09-07T00:51:15;4.20;;;1.80;;
55435;SDS011;41307;53.142;6.430;2023-09-07T00:53:41;3.28;;;1.85;;
55435;SDS011;41307;53.142;6.430;2023-09-07T00:56:06;3.28;;;2.15;;
55435;SDS011;41307;53.142;6.430;2023-09-07T00:58:32;3.53;;;1.98;;
55435;SDS011;41307;53.142;6.430;2023-09-07T01:00:59;3.17;;;1.70;;
55435;SDS011;41307;53.142;6.430;2023-09-07T01:03:25;4.25;;;2.10;;
55435;SDS011;41307;53.142;6.430;2023-09-07T01:05:52;3.05;;;1.80;;
55435;SDS011;41307;53.142;6.430;2023-09-07T01:08:24;3.30;;;2.28;;
55435;SDS011;41307;53.142;6.430;2023-09-07T01:11:13;3.63;;;2.05;;
55435;SDS011;41307;53.142;6.430;2023-09-07T01:13:40;3.90;;;2.28;;
55435;SDS011;41307;53.142;6.430;2023-09-07T01:16:07;3.45;;;2.20;;
55435;SDS011;41307;53.142;6.430;2023-09-07T01:18:33;4.07;;;1.95;;
55435;SDS011;41307;53.142;6.430;2023-09-07T01:20:59;3.40;;;1.98;;
55435;SDS011;41307;53.142;6.430;2023-09-07T01:23:28;2.55;;;1.90;;
55435;SDS011;41307;53.142;6.430;2023-09-07T01:25:54;3.33;;;2.00;;
55435;SDS011;41307;53.142;6.430;2023-09-07T01:28:20;3.75;;;1.92;;
55435;SDS011;41307;53.142;6.430;2023-09-07T01:30:46;3.60;;;2.08;;
55435;SDS011;41307;53.142;6.430;2023-09-07T01:33:12;2.95;;;2.08;;
55435;SDS011;41307;53.142;6.430;2023-09-07T01:35:38;3.47;;;2.38;;
55435;SDS011;41307;53.142;6.430;2023-09-07T01:38:05;4.22;;;2.33;;
55435;SDS011;41307;53.142;6.430;2023-09-07T01:40:31;3.20;;;2.13;;
55435;SDS011;41307;53.142;6.430;2023-09-07T01:42:56;4.05;;;2.30;;
55435;SDS011;41307;53.142;6.430;2023-09-07T01:45:22;3.58;;;2.00;;
55435;SDS011;41307;53.142;6.430;2023-09-07T01:47:49;4.10;;;2.35;;
55435;SDS011;41307;53.142;6.430;2023-09-07T01:50:16;3.75;;;2.30;;
55435;SDS011;41307;53.142;6.430;2023-09-07T01:52:41;3.15;;;2.08;;
55435;SDS011;41307;53.142;6.430;2023-09-07T01:55:07;3.15;;;2.15;;
55435;SDS011;41307;53.142;6.430;2023-09-07T01:57:33;3.90;;;2.40;;
55435;SDS011;41307;53.142;6.430;2023-09-07T01:59:58;4.25;;;2.17;;
55435;SDS011;41307;53.142;6.430;2023-09-07T02:02:24;3.03;;;2.42;;
55435;SDS011;41307;53.142;6.430;2023-09-07T02:04:50;3.60;;;2.75;;
55435;SDS011;41307;53.142;6.430;2023-09-07T02:07:15;4.45;;;2.60;;
55435;SDS011;41307;53.142;6.430;2023-09-07T02:09:41;2.80;;;1.90;;
55435;SDS011;41307;53.142;6.430;2023-09-07T02:12:07;4.28;;;2.47;;
55435;SDS011;41307;53.142;6.430;2023-09-07T02:14:33;4.00;;;2.10;;
55435;SDS011;41307;53.142;6.430;2023-09-07T02:16:58;2.78;;;2.20;;
55435;SDS011;41307;53.142;6.430;2023-09-07T02:19:24;4.53;;;2.45;;
55435;SDS011;41307;53.142;6.430;2023-09-07T02:21:50;3.47;;;2.25;;
55435;SDS011;41307;53.142;6.430;2023-09-07T02:24:17;3.83;;;2.90;;
55435;SDS011;41307;53.142;6.430;2023-09-07T02:26:43;4.03;;;2.58;;
55435;SDS011;41307;53.142;6.430;2023-09-07T02:29:13;3.22;;;2.35;;
55435;SDS011;41307;53.142;6.430;2023-09-07T02:31:39;3.10;;;2.38;;
55435;SDS011;41307;53.142;6.430;2023-09-07T02:34:05;3.97;;;2.15;;
55435;SDS011;41307;53.142;6.430;2023-09-07T02:36:32;5.85;;;2.40;;
55435;SDS011;41307;53.142;6.430;2023-09-07T02:38:58;3.40;;;2.47;;
55435;SDS011;41307;53.142;6.430;2023-09-07T02:41:24;4.47;;;2.63;;
55435;SDS011;41307;53.142;6.430;2023-09-07T02:43:49;3.47;;;2.30;;
55435;SDS011;41307;53.142;6.430;2023-09-07T02:46:16;3.47;;;2.33;;
55435;SDS011;41307;53.142;6.430;2023-09-07T02:48:42;5.13;;;2.63;;
55435;SDS011;41307;53.142;6.430;2023-09-07T02:51:07;4.93;;;2.25;;
55435;SDS011;41307;53.142;6.430;2023-09-07T02:53:33;2.95;;;2.20;;
55435;SDS011;41307;53.142;6.430;2023-09-07T02:55:59;3.20;;;2.50;;
55435;SDS011;41307;53.142;6.430;2023-09-07T02:58:27;3.70;;;2.28;;
55435;SDS011;41307;53.142;6.430;2023-09-07T03:00:53;3.45;;;2.50;;
55435;SDS011;41307;53.142;6.430;2023-09-07T03:03:20;3.30;;;2.67;;
55435;SDS011;41307;53.142;6.430;2023-09-07T03:05:45;4.00;;;2.67;;
55435;SDS011;41307;53.142;6.430;2023-09-07T03:08:11;3.50;;;2.40;;
55435;SDS011;41307;53.142;6.430;2023-09-07T03:10:37;3.25;;;2.58;;
55435;SDS011;41307;53.142;6.430;2023-09-07T03:13:05;3.97;;;2.60;;
55435;SDS011;41307;53.142;6.430;2023-09-07T03:15:31;3.63;;;2.63;;
55435;SDS011;41307;53.142;6.430;2023-09-07T03:17:57;4.90;;;2.50;;
55435;SDS011;41307;53.142;6.430;2023-09-07T03:20:23;3.38;;;2.30;;
55435;SDS011;41307;53.142;6.430;2023-09-07T03:22:49;3.95;;;2.67;;
55435;SDS011;41307;53.142;6.430;2023-09-07T03:25:14;3.45;;;2.40;;
55435;SDS011;41307;53.142;6.430;2023-09-07T03:27:40;4.55;;;2.28;;
55435;SDS011;41307;53.142;6.430;2023-09-07T03:30:06;4.40;;;2.65;;
55435;SDS011;41307;53.142;6.430;2023-09-07T03:32:33;4.90;;;2.70;;
55435;SDS011;41307;53.142;6.430;2023-09-07T03:34:59;3.13;;;2.38;;
55435;SDS011;41307;53.142;6.430;2023-09-07T03:37:28;3.53;;;2.40;;
55435;SDS011;41307;53.142;6.430;2023-09-07T03:39:55;4.00;;;2.70;;
55435;SDS011;41307;53.142;6.430;2023-09-07T03:42:21;4.20;;;2.38;;
55435;SDS011;41307;53.142;6.430;2023-09-07T03:44:47;4.25;;;2.38;;
55435;SDS011;41307;53.142;6.430;2023-09-07T03:47:14;3.33;;;2.28;;
55435;SDS011;41307;53.142;6.430;2023-09-07T03:49:40;3.63;;;2.50;;
55435;SDS011;41307;53.142;6.430;2023-09-07T03:52:06;3.08;;;2.30;;
55435;SDS011;41307;53.142;6.430;2023-09-07T03:54:32;4.72;;;2.75;;
55435;SDS011;41307;53.142;6.430;2023-09-07T03:56:58;4.70;;;3.20;;
55435;SDS011;41307;53.142;6.430;2023-09-07T03:59:23;4.65;;;3.15;;
55435;SDS011;41307;53.142;6.430;2023-09-07T04:01:49;4.28;;;2.72;;
55435;SDS011;41307;53.142;6.430;2023-09-07T04:04:15;5.55;;;2.70;;
55435;SDS011;41307;53.142;6.430;2023-09-07T04:06:41;4.13;;;2.88;;
55435;SDS011;41307;53.142;6.430;2023-09-07T04:09:06;3.85;;;2.72;;
55435;SDS011;41307;53.142;6.430;2023-09-07T04:11:32;3.83;;;2.50;;
55435;SDS011;41307;53.142;6.430;2023-09-07T04:13:58;3.25;;;2.40;;
55435;SDS011;41307;53.142;6.430;2023-09-07T04:16:23;3.70;;;2.80;;
55435;SDS011;41307;53.142;6.430;2023-09-07T04:18:49;4.55;;;2.97;;
55435;SDS011;41307;53.142;6.430;2023-09-07T04:21:15;4.35;;;2.85;;
55435;SDS011;41307;53.142;6.430;2023-09-07T04:23:42;4.28;;;3.03;;
55435;SDS011;41307;53.142;6.430;2023-09-07T04:26:08;4.47;;;3.15;;
55435;SDS011;41307;53.142;6.430;2023-09-07T04:28:35;3.83;;;2.65;;
55435;SDS011;41307;53.142;6.430;2023-09-07T04:31:02;4.32;;;2.67;;
55435;SDS011;41307;53.142;6.430;2023-09-07T04:33:32;3.67;;;2.80;;
55435;SDS011;41307;53.142;6.430;2023-09-07T04:36:08;4.13;;;3.20;;
55435;SDS011;41307;53.142;6.430;2023-09-07T04:38:38;4.38;;;2.67;;
55435;SDS011;41307;53.142;6.430;2023-09-07T04:41:08;4.07;;;2.65;;
55435;SDS011;41307;53.142;6.430;2023-09-07T04:43:34;4.47;;;2.90;;
55435;SDS011;41307;53.142;6.430;2023-09-07T04:46:00;3.25;;;2.55;;
55435;SDS011;41307;53.142;6.430;2023-09-07T04:48:26;4.20;;;3.53;;
55435;SDS011;41307;53.142;6.430;2023-09-07T04:51:01;3.97;;;3.00;;
55435;SDS011;41307;53.142;6.430;2023-09-07T04:53:29;5.10;;;3.00;;
55435;SDS011;41307;53.142;6.430;2023-09-07T04:55:56;5.18;;;3.22;;
55435;SDS011;41307;53.142;6.430;2023-09-07T04:58:22;3.53;;;2.90;;
55435;SDS011;41307;53.142;6.430;2023-09-07T05:00:48;4.35;;;2.67;;
55435;SDS011;41307;53.142;6.430;2023-09-07T05:03:14;4.15;;;2.90;;
55435;SDS011;41307;53.142;6.430;2023-09-07T05:05:41;3.88;;;2.80;;
55435;SDS011;41307;53.142;6.430;2023-09-07T05:08:07;4.20;;;2.90;;
55435;SDS011;41307;53.142;6.430;2023-09-07T05:10:33;4.28;;;2.97;;
55435;SDS011;41307;53.142;6.430;2023-09-07T05:12:59;4.47;;;2.90;;
55435;SDS011;41307;53.142;6.430;2023-09-07T05:15:25;4.55;;;3.10;;
55435;SDS011;41307;53.142;6.430;2023-09-07T05:17:51;4.55;;;3.17;;
55435;SDS011;41307;53.142;6.430;2023-09-07T05:20:17;3.85;;;2.80;;
55435;SDS011;41307;53.142;6.430;2023-09-07T05:22:43;5.72;;;3.13;;
55435;SDS011;41307;53.142;6.430;2023-09-07T05:25:09;4.97;;;3.33;;
55435;SDS011;41307;53.142;6.430;2023-09-07T05:27:35;4.80;;;3.28;;
55435;SDS011;41307;53.142;6.430;2023-09-07T05:30:04;5.53;;;3.30;;
55435;SDS011;41307;53.142;6.430;2023-09-07T05:32:30;4.72;;;2.70;;
55435;SDS011;41307;53.142;6.430;2023-09-07T05:34:56;3.95;;;2.90;;
55435;SDS011;41307;53.142;6.430;2023-09-07T05:37:22;4.72;;;2.85;;
55435;SDS011;41307;53.142;6.430;2023-09-07T05:39:47;5.18;;;3.58;;
55435;SDS011;41307;53.142;6.430;2023-09-07T05:42:14;3.90;;;2.63;;
55435;SDS011;41307;53.142;6.430;2023-09-07T05:44:40;5.25;;;3.75;;
55435;SDS011;41307;53.142;6.430;2023-09-07T05:47:05;4.50;;;3.20;;
55435;SDS011;41307;53.142;6.430;2023-09-07T05:49:31;6.32;;;3.33;;
55435;SDS011;41307;53.142;6.430;2023-09-07T05:51:57;4.60;;;3.22;;
55435;SDS011;41307;53.142;6.430;2023-09-07T05:54:23;4.85;;;3.00;;
55435;SDS011;41307;53.142;6.430;2023-09-07T05:56:48;4.60;;;3.38;;
55435;SDS011;41307;53.142;6.430;2023-09-07T05:59:14;4.90;;;2.97;;
55435;SDS011;41307;53.142;6.430;2023-09-07T06:01:40;4.00;;;2.95;;
55435;SDS011;41307;53.142;6.430;2023-09-07T06:04:06;4.65;;;3.20;;
55435;SDS011;41307;53.142;6.430;2023-09-07T06:06:32;4.75;;;3.15;;
55435;SDS011;41307;53.142;6.430;2023-09-07T06:08:58;6.20;;;3.42;;
55435;SDS011;41307;53.142;6.430;2023-09-07T06:11:24;5.55;;;3.58;;
55435;SDS011;41307;53.142;6.430;2023-09-07T06:13:50;4.90;;;3.25;;
55435;SDS011;41307;53.142;6.430;2023-09-07T06:16:16;4.80;;;3.55;;
55435;SDS011;41307;53.142;6.430;2023-09-07T06:18:43;5.43;;;3.17;;
55435;SDS011;41307;53.142;6.430;2023-09-07T06:21:08;4.38;;;3.10;;
55435;SDS011;41307;53.142;6.430;2023-09-07T06:23:34;5.97;;;3.80;;
55435;SDS011;41307;53.142;6.430;2023-09-07T06:26:00;4.90;;;3.70;;
55435;SDS011;41307;53.142;6.430;2023-09-07T06:28:26;5.28;;;3.40;;
55435;SDS011;41307;53.142;6.430;2023-09-07T06:30:52;4.47;;;3.22;;
55435;SDS011;41307;53.142;6.430;2023-09-07T06:33:18;4.30;;;2.88;;
55435;SDS011;41307;53.142;6.430;2023-09-07T06:35:43;4.18;;;2.88;;
55435;SDS011;41307;53.142;6.430;2023-09-07T06:38:09;5.82;;;3.50;;
55435;SDS011;41307;53.142;6.430;2023-09-07T06:40:35;6.30;;;3.33;;
55435;SDS011;41307;53.142;6.430;2023-09-07T06:43:01;4.50;;;3.10;;
55435;SDS011;41307;53.142;6.430;2023-09-07T06:45:33;4.75;;;3.20;;
55435;SDS011;41307;53.142;6.430;2023-09-07T06:48:02;4.90;;;3.30;;
55435;SDS011;41307;53.142;6.430;2023-09-07T06:50:28;4.57;;;2.90;;
55435;SDS011;41307;53.142;6.430;2023-09-07T06:52:54;4.18;;;2.75;;
55435;SDS011;41307;53.142;6.430;2023-09-07T06:55:20;4.50;;;2.97;;
55435;SDS011;41307;53.142;6.430;2023-09-07T06:57:46;5.13;;;2.97;;
55435;SDS011;41307;53.142;6.430;2023-09-07T07:00:11;3.90;;;3.00;;
55435;SDS011;41307;53.142;6.430;2023-09-07T07:02:38;5.25;;;3.10;;
55435;SDS011;41307;53.142;6.430;2023-09-07T07:05:04;5.25;;;2.92;;
55435;SDS011;41307;53.142;6.430;2023-09-07T07:07:30;4.38;;;3.13;;
55435;SDS011;41307;53.142;6.430;2023-09-07T07:09:56;3.97;;;3.08;;
55435;SDS011;41307;53.142;6.430;2023-09-07T07:12:22;4.00;;;2.75;;
55435;SDS011;41307;53.142;6.430;2023-09-07T07:14:48;4.03;;;2.75;;
55435;SDS011;41307;53.142;6.430;2023-09-07T07:17:14;5.93;;;3.38;;
55435;SDS011;41307;53.142;6.430;2023-09-07T07:19:39;5.03;;;2.72;;
55435;SDS011;41307;53.142;6.430;2023-09-07T07:22:06;4.43;;;3.15;;
55435;SDS011;41307;53.142;6.430;2023-09-07T07:24:32;4.40;;;2.63;;
55435;SDS011;41307;53.142;6.430;2023-09-07T07:26:58;4.60;;;3.20;;
55435;SDS011;41307;53.142;6.430;2023-09-07T07:29:23;5.22;;;3.35;;
55435;SDS011;41307;53.142;6.430;2023-09-07T07:31:49;4.85;;;2.97;;
55435;SDS011;41307;53.142;6.430;2023-09-07T07:34:15;4.72;;;2.85;;
55435;SDS011;41307;53.142;6.430;2023-09-07T07:36:41;5.30;;;2.85;;
55435;SDS011;41307;53.142;6.430;2023-09-07T07:39:06;4.82;;;2.95;;
55435;SDS011;41307;53.142;6.430;2023-09-07T07:41:32;3.92;;;2.60;;
55435;SDS011;41307;53.142;6.430;2023-09-07T07:43:58;4.70;;;2.80;;
55435;SDS011;41307;53.142;6.430;2023-09-07T07:46:24;3.95;;;2.55;;
55435;SDS011;41307;53.142;6.430;2023-09-07T07:48:50;3.80;;;2.92;;
55435;SDS011;41307;53.142;6.430;2023-09-07T07:51:15;4.35;;;2.65;;
55435;SDS011;41307;53.142;6.430;2023-09-07T07:53:41;4.10;;;2.35;;
55435;SDS011;41307;53.142;6.430;2023-09-07T07:56:16;3.58;;;2.30;;
55435;SDS011;41307;53.142;6.430;2023-09-07T07:58:43;4.82;;;2.67;;
55435;SDS011;41307;53.142;6.430;2023-09-07T08:01:15;5.28;;;2.58;;
55435;SDS011;41307;53.142;6.430;2023-09-07T08:03:42;5.00;;;2.67;;
55435;SDS011;41307;53.142;6.430;2023-09-07T08:06:08;5.40;;;2.40;;
55435;SDS011;41307;53.142;6.430;2023-09-07T08:08:35;4.32;;;2.70;;
55435;SDS011;41307;53.142;6.430;2023-09-07T08:11:02;3.63;;;2.30;;
55435;SDS011;41307;53.142;6.430;2023-09-07T08:13:31;3.95;;;2.22;;
55435;SDS011;41307;53.142;6.430;2023-09-07T08:15:59;3.47;;;2.10;;
55435;SDS011;41307;53.142;6.430;2023-09-07T08:18:28;3.05;;;2.00;;
55435;SDS011;41307;53.142;6.430;2023-09-07T08:20:57;4.40;;;2.08;;
55435;SDS011;41307;53.142;6.430;2023-09-07T08:23:25;2.97;;;1.80;;
55435;SDS011;41307;53.142;6.430;2023-09-07T08:25:51;3.63;;;2.30;;
55435;SDS011;41307;53.142;6.430;2023-09-07T08:28:17;2.75;;;1.90;;
55435;SDS011;41307;53.142;6.430;2023-09-07T08:30:44;3.15;;;1.55;;
55435;SDS011;41307;53.142;6.430;2023-09-07T08:33:10;4.15;;;1.77;;
55435;SDS011;41307;53.142;6.430;2023-09-07T08:35:36;3.30;;;1.95;;
55435;SDS011;41307;53.142;6.430;2023-09-07T08:38:09;4.47;;;1.98;;
55435;SDS011;41307;53.142;6.430;2023-09-07T08:40:36;3.75;;;1.83;;
55435;SDS011;41307;53.142;6.430;2023-09-07T08:43:06;2.25;;;1.75;;
55435;SDS011;41307;53.142;6.430;2023-09-07T08:45:37;2.70;;;1.77;;
55435;SDS011;41307;53.142;6.430;2023-09-07T08:48:11;3.67;;;2.20;;
55435;SDS011;41307;53.142;6.430;2023-09-07T08:50:38;2.47;;;1.60;;
55435;SDS011;41307;53.142;6.430;2023-09-07T08:53:05;4.60;;;2.20;;
55435;SDS011;41307;53.142;6.430;2023-09-07T08:55:32;2.67;;;1.60;;
55435;SDS011;41307;53.142;6.430;2023-09-07T08:57:59;2.20;;;1.55;;
55435;SDS011;41307;53.142;6.430;2023-09-07T09:00:24;2.47;;;1.70;;
55435;SDS011;41307;53.142;6.430;2023-09-07T09:02:50;3.53;;;1.90;;
55435;SDS011;41307;53.142;6.430;2023-09-07T09:05:19;3.45;;;1.88;;
55435;SDS011;41307;53.142;6.430;2023-09-07T09:07:45;2.28;;;1.70;;
55435;SDS011;41307;53.142;6.430;2023-09-07T09:10:11;2.45;;;1.48;;
55435;SDS011;41307;53.142;6.430;2023-09-07T09:12:44;3.97;;;1.58;;
55435;SDS011;41307;53.142;6.430;2023-09-07T09:15:11;2.50;;;1.33;;
55435;SDS011;41307;53.142;6.430;2023-09-07T09:17:37;2.95;;;1.50;;
55435;SDS011;41307;53.142;6.430;2023-09-07T09:20:02;2.85;;;1.38;;
55435;SDS011;41307;53.142;6.430;2023-09-07T09:22:35;2.97;;;1.33;;
55435;SDS011;41307;53.142;6.430;2023-09-07T09:25:04;2.50;;;1.60;;
55435;SDS011;41307;53.142;6.430;2023-09-07T09:27:30;2.25;;;1.67;;
55435;SDS011;41307;53.142;6.430;2023-09-07T09:29:56;2.38;;;1.50;;
55435;SDS011;41307;53.142;6.430;2023-09-07T09:32:23;2.25;;;1.35;;
55435;SDS011;41307;53.142;6.430;2023-09-07T09:34:49;3.08;;;1.40;;
55435;SDS011;41307;53.142;6.430;2023-09-07T09:37:15;2.65;;;1.60;;
55435;SDS011;41307;53.142;6.430;2023-09-07T09:39:41;2.15;;;1.35;;
55435;SDS011;41307;53.142;6.430;2023-09-07T09:42:08;2.40;;;1.40;;
55435;SDS011;41307;53.142;6.430;2023-09-07T09:44:35;2.25;;;1.30;;
55435;SDS011;41307;53.142;6.430;2023-09-07T09:47:02;3.63;;;1.80;;
55435;SDS011;41307;53.142;6.430;2023-09-07T09:49:28;2.35;;;1.55;;
55435;SDS011;41307;53.142;6.430;2023-09-07T09:51:54;2.55;;;1.60;;
55435;SDS011;41307;53.142;6.430;2023-09-07T09:54:23;2.50;;;1.45;;
55435;SDS011;41307;53.142;6.430;2023-09-07T09:56:51;2.00;;;1.38;;
55435;SDS011;41307;53.142;6.430;2023-09-07T09:59:17;2.75;;;1.40;;
55435;SDS011;41307;53.142;6.430;2023-09-07T10:01:44;2.72;;;1.38;;
55435;SDS011;41307;53.142;6.430;2023-09-07T10:04:15;2.58;;;1.40;;
55435;SDS011;41307;53.142;6.430;2023-09-07T10:06:55;3.83;;;1.63;;
55435;SDS011;41307;53.142;6.430;2023-09-07T10:09:28;2.10;;;1.30;;
55435;SDS011;41307;53.142;6.430;2023-09-07T10:11:57;2.15;;;1.60;;
55435;SDS011;41307;53.142;6.430;2023-09-07T10:14:24;2.55;;;1.65;;
55435;SDS011;41307;53.142;6.430;2023-09-07T10:16:51;2.03;;;1.58;;
55435;SDS011;41307;53.142;6.430;2023-09-07T10:19:23;3.08;;;1.90;;
55435;SDS011;41307;53.142;6.430;2023-09-07T10:21:52;3.22;;;1.63;;
55435;SDS011;41307;53.142;6.430;2023-09-07T10:24:34;3.88;;;1.90;;
55435;SDS011;41307;53.142;6.430;2023-09-07T10:27:08;3.90;;;1.58;;
55435;SDS011;41307;53.142;6.430;2023-09-07T10:29:46;3.10;;;1.50;;
55435;SDS011;41307;53.142;6.430;2023-09-07T10:32:17;2.97;;;1.58;;
55435;SDS011;41307;53.142;6.430;2023-09-07T10:34:43;2.80;;;1.60;;
55435;SDS011;41307;53.142;6.430;2023-09-07T10:37:12;2.17;;;1.48;;
55435;SDS011;41307;53.142;6.430;2023-09-07T10:39:40;3.85;;;1.38;;
55435;SDS011;41307;53.142;6.430;2023-09-07T10:42:19;2.97;;;1.85;;
55435;SDS011;41307;53.142;6.430;2023-09-07T10:44:49;3.10;;;1.58;;
55435;SDS011;41307;53.142;6.430;2023-09-07T10:47:15;2.65;;;1.67;;
55435;SDS011;41307;53.142;6.430;2023-09-07T10:49:42;1.65;;;1.30;;
55435;SDS011;41307;53.142;6.430;2023-09-07T10:52:07;2.45;;;1.60;;
55435;SDS011;41307;53.142;6.430;2023-09-07T10:54:33;2.03;;;1.30;;
55435;SDS011;41307;53.142;6.430;2023-09-07T10:57:07;3.15;;;1.70;;
55435;SDS011;41307;53.142;6.430;2023-09-07T10:59:34;2.97;;;1.70;;
55435;SDS011;41307;53.142;6.430;2023-09-07T11:02:03;2.53;;;1.65;;
55435;SDS011;41307;53.142;6.430;2023-09-07T11:04:30;2.70;;;1.65;;
55435;SDS011;41307;53.142;6.430;2023-09-07T11:06:55;2.40;;;1.58;;
55435;SDS011;41307;53.142;6.430;2023-09-07T11:09:21;3.63;;;1.90;;
55435;SDS011;41307;53.142;6.430;2023-09-07T11:11:48;1.75;;;1.30;;
55435;SDS011;41307;53.142;6.430;2023-09-07T11:14:14;3.15;;;2.00;;
55435;SDS011;41307;53.142;6.430;2023-09-07T11:16:40;3.33;;;1.98;;
55435;SDS011;41307;53.142;6.430;2023-09-07T11:19:06;3.58;;;1.90;;
55435;SDS011;41307;53.142;6.430;2023-09-07T11:21:36;2.47;;;1.88;;
55435;SDS011;41307;53.142;6.430;2023-09-07T11:24:02;2.80;;;1.90;;
55435;SDS011;41307;53.142;6.430;2023-09-07T11:26:41;2.63;;;1.70;;
55435;SDS011;41307;53.142;6.430;2023-09-07T11:29:14;3.67;;;1.90;;
55435;SDS011;41307;53.142;6.430;2023-09-07T11:31:41;3.55;;;1.60;;
55435;SDS011;41307;53.142;6.430;2023-09-07T11:34:11;2.58;;;1.60;;
55435;SDS011;41307;53.142;6.430;2023-09-07T11:36:38;2.70;;;1.40;;
55435;SDS011;41307;53.142;6.430;2023-09-07T11:39:05;2.22;;;1.65;;
55435;SDS011;41307;53.142;6.430;2023-09-07T11:41:46;2.83;;;1.88;;
55435;SDS011;41307;53.142;6.430;2023-09-07T11:44:11;2.45;;;1.58;;
55435;SDS011;41307;53.142;6.430;2023-09-07T11:46:37;2.65;;;1.52;;
55435;SDS011;41307;53.142;6.430;2023-09-07T11:49:04;3.53;;;1.40;;
55435;SDS011;41307;53.142;6.430;2023-09-07T11:51:31;4.03;;;1.60;;
55435;SDS011;41307;53.142;6.430;2023-09-07T11:53:57;3.15;;;1.73;;
55435;SDS011;41307;53.142;6.430;2023-09-07T11:56:22;2.60;;;1.58;;
55435;SDS011;41307;53.142;6.430;2023-09-07T11:58:48;2.50;;;1.50;;
55435;SDS011;41307;53.142;6.430;2023-09-07T12:01:14;1.70;;;1.38;;
55435;SDS011;41307;53.142;6.430;2023-09-07T12:03:43;2.88;;;1.65;;
55435;SDS011;41307;53.142;6.430;2023-09-07T12:06:13;4.30;;;1.55;;
55435;SDS011;41307;53.142;6.430;2023-09-07T12:08:42;2.60;;;1.35;;
55435;SDS011;41307;53.142;6.430;2023-09-07T12:11:26;3.03;;;1.40;;
55435;SDS011;41307;53.142;6.430;2023-09-07T12:13:52;2.85;;;1.50;;
55435;SDS011;41307;53.142;6.430;2023-09-07T12:16:18;2.35;;;1.27;;
55435;SDS011;41307;53.142;6.430;2023-09-07T12:18:44;2.25;;;1.50;;
55435;SDS011;41307;53.142;6.430;2023-09-07T12:21:09;3.30;;;1.48;;
55435;SDS011;41307;53.142;6.430;2023-09-07T12:23:35;2.20;;;1.13;;
55435;SDS011;41307;53.142;6.430;2023-09-07T12:26:01;2.20;;;1.20;;
55435;SDS011;41307;53.142;6.430;2023-09-07T12:28:29;2.25;;;1.30;;
55435;SDS011;41307;53.142;6.430;2023-09-07T12:30:56;2.95;;;1.55;;
55435;SDS011;41307;53.142;6.430;2023-09-07T12:33:23;3.88;;;1.45;;
55435;SDS011;41307;53.142;6.430;2023-09-07T12:35:49;2.75;;;1.55;;
55435;SDS011;41307;53.142;6.430;2023-09-07T12:38:15;2.58;;;1.48;;
55435;SDS011;41307;53.142;6.430;2023-09-07T12:40:46;2.63;;;1.58;;
55435;SDS011;41307;53.142;6.430;2023-09-07T12:43:11;2.88;;;1.52;;
55435;SDS011;41307;53.142;6.430;2023-09-07T12:45:37;2.25;;;1.40;;
55435;SDS011;41307;53.142;6.430;2023-09-07T12:48:03;3.50;;;1.67;;
55435;SDS011;41307;53.142;6.430;2023-09-07T12:50:29;2.38;;;1.60;;
55435;SDS011;41307;53.142;6.430;2023-09-07T12:52:54;2.30;;;1.50;;
55435;SDS011;41307;53.142;6.430;2023-09-07T12:55:20;2.92;;;1.60;;
55435;SDS011;41307;53.142;6.430;2023-09-07T12:57:47;2.22;;;1.52;;
55435;SDS011;41307;53.142;6.430;2023-09-07T13:00:12;5.13;;;1.60;;
55435;SDS011;41307;53.142;6.430;2023-09-07T13:02:38;2.45;;;1.42;;
55435;SDS011;41307;53.142;6.430;2023-09-07T13:05:04;3.40;;;1.95;;
55435;SDS011;41307;53.142;6.430;2023-09-07T13:07:31;2.45;;;1.55;;
55435;SDS011;41307;53.142;6.430;2023-09-07T13:10:00;2.60;;;1.42;;
55435;SDS011;41307;53.142;6.430;2023-09-07T13:12:31;2.75;;;1.65;;
55435;SDS011;41307;53.142;6.430;2023-09-07T13:14:57;3.35;;;1.80;;
55435;SDS011;41307;53.142;6.430;2023-09-07T13:17:23;2.33;;;1.60;;
55435;SDS011;41307;53.142;6.430;2023-09-07T13:19:49;2.83;;;1.90;;
55435;SDS011;41307;53.142;6.430;2023-09-07T13:22:14;3.80;;;1.55;;
55435;SDS011;41307;53.142;6.430;2023-09-07T13:24:40;2.85;;;1.70;;
55435;SDS011;41307;53.142;6.430;2023-09-07T13:27:06;1.98;;;1.33;;
55435;SDS011;41307;53.142;6.430;2023-09-07T13:29:32;2.90;;;1.73;;
55435;SDS011;41307;53.142;6.430;2023-09-07T13:31:58;2.40;;;1.80;;
55435;SDS011;41307;53.142;6.430;2023-09-07T13:34:24;2.60;;;1.63;;
55435;SDS011;41307;53.142;6.430;2023-09-07T13:36:50;2.13;;;1.73;;
55435;SDS011;41307;53.142;6.430;2023-09-07T13:39:16;2.47;;;1.42;;
55435;SDS011;41307;53.142;6.430;2023-09-07T13:41:42;5.30;;;1.90;;
55435;SDS011;41307;53.142;6.430;2023-09-07T13:44:08;2.88;;;1.60;;
55435;SDS011;41307;53.142;6.430;2023-09-07T13:46:34;2.78;;;1.92;;
55435;SDS011;41307;53.142;6.430;2023-09-07T13:49:00;3.28;;;1.60;;
55435;SDS011;41307;53.142;6.430;2023-09-07T13:51:25;3.70;;;1.70;;
55435;SDS011;41307;53.142;6.430;2023-09-07T13:53:51;3.15;;;1.60;;
55435;SDS011;41307;53.142;6.430;2023-09-07T13:56:17;2.25;;;1.50;;
55435;SDS011;41307;53.142;6.430;2023-09-07T13:58:43;2.42;;;1.55;;
55435;SDS011;41307;53.142;6.430;2023-09-07T14:01:09;3.03;;;1.77;;
55435;SDS011;41307;53.142;6.430;2023-09-07T14:03:35;3.78;;;1.83;;
55435;SDS011;41307;53.142;6.430;2023-09-07T14:06:02;3.75;;;1.85;;
55435;SDS011;41307;53.142;6.430;2023-09-07T14:08:27;2.60;;;1.50;;
55435;SDS011;41307;53.142;6.430;2023-09-07T14:10:55;2.95;;;1.70;;
55435;SDS011;41307;53.142;6.430;2023-09-07T14:13:21;2.75;;;1.73;;
55435;SDS011;41307;53.142;6.430;2023-09-07T14:15:47;3.30;;;2.03;;
55435;SDS011;41307;53.142;6.430;2023-09-07T14:18:12;2.45;;;1.52;;
55435;SDS011;41307;53.142;6.430;2023-09-07T14:20:38;2.55;;;1.60;;
55435;SDS011;41307;53.142;6.430;2023-09-07T14:23:04;3.40;;;1.80;;
55435;SDS011;41307;53.142;6.430;2023-09-07T14:25:30;2.97;;;1.60;;
55435;SDS011;41307;53.142;6.430;2023-09-07T14:27:55;2.20;;;1.60;;
55435;SDS011;41307;53.142;6.430;2023-09-07T14:30:21;3.53;;;1.75;;
55435;SDS011;41307;53.142;6.430;2023-09-07T14:32:47;3.72;;;1.75;;
55435;SDS011;41307;53.142;6.430;2023-09-07T14:35:14;3.13;;;1.65;;
55435;SDS011;41307;53.142;6.430;2023-09-07T14:37:40;3.03;;;1.85;;
55435;SDS011;41307;53.142;6.430;2023-09-07T14:40:06;3.47;;;1.70;;
55435;SDS011;41307;53.142;6.430;2023-09-07T14:42:33;2.22;;;1.35;;
55435;SDS011;41307;53.142;6.430;2023-09-07T14:44:59;2.28;;;1.33;;